sensor_id;sensor_type;location;lat;lon;timestamp;pressure;altitude;pressure_sealevel;temperature;humidity
23318;BME280;11831;55.918;37.746;2023-05-20T00:01:59;100335.31;;;11.57;0.00
23318;BME280;11831;55.918;37.746;2023-05-20T00:04:25;100328.87;;;11.71;0.00
23318;BME280;11831;55.918;37.746;2023-05-20T00:06:52;100336.94;;;11.71;0.00
23318;BME280;11831;55.918;37.746;2023-05-20T00:09:19;100327.19;;;11.83;0.00
23318;BME280;11831;55.918;37.746;2023-05-20T00:11:46;100327.25;;;11.70;0.00
23318;BME280;11831;55.918;37.746;2023-05-20T00:14:12;100321.84;;;11.76;0.00
23318;BME280;11831;55.918;37.746;2023-05-20T00:16:39;100327.63;;;11.80;0.00
23318;BME280;11831;55.918;37.746;2023-05-20T00:19:06;100320.06;;;11.57;0.00
23318;BME280;11831;55.918;37.746;2023-05-20T00:21:32;100322.47;;;11.34;0.00
23318;BME280;11831;55.918;37.746;2023-05-20T00:23:58;100319.56;;;11.35;0.00
23318;BME280;11831;55.918;37.746;2023-05-20T00:26:25;100315.41;;;11.46;0.00
23318;BME280;11831;55.918;37.746;2023-05-20T00:28:51;100319.63;;;11.67;0.00
23318;BME280;11831;55.918;37.746;2023-05-20T00:31:17;100312.22;;;11.69;0.00
23318;BME280;11831;55.918;37.746;2023-05-20T00:33:44;100320.22;;;11.75;0.00
23318;BME280;11831;55.918;37.746;2023-05-20T00:36:10;100316.66;;;11.88;0.00
23318;BME280;11831;55.918;37.746;2023-05-20T00:38:37;100326.03;;;11.66;0.00
23318;BME280;11831;55.918;37.746;2023-05-20T00:41:03;100320.81;;;11.26;0.00
23318;BME280;11831;55.918;37.746;2023-05-20T00:43:29;100317.41;;;11.57;0.00
23318;BME280;11831;55.918;37.746;2023-05-20T00:45:56;100326.91;;;11.53;0.00
23318;BME280;11831;55.918;37.746;2023-05-20T00:48:22;100326.84;;;11.60;0.00
23318;BME280;11831;55.918;37.746;2023-05-20T00:50:49;100324.47;;;11.45;0.00
23318;BME280;11831;55.918;37.746;2023-05-20T00:53:17;100323.34;;;11.66;0.00
23318;BME280;11831;55.918;37.746;2023-05-20T00:55:44;100328.22;;;11.37;0.00
23318;BME280;11831;55.918;37.746;2023-05-20T00:58:10;100315.31;;;11.66;0.00
23318;BME280;11831;55.918;37.746;2023-05-20T01:00:38;100321.19;;;11.43;0.00
23318;BME280;11831;55.918;37.746;2023-05-20T01:03:04;100317.09;;;11.34;0.00
23318;BME280;11831;55.918;37.746;2023-05-20T01:05:30;100321.16;;;11.49;0.00
23318;BME280;11831;55.918;37.746;2023-05-20T01:07:57;100321.00;;;11.31;0.00
23318;BME280;11831;55.918;37.746;2023-05-20T01:10:24;100326.16;;;11.33;0.00
23318;BME280;11831;55.918;37.746;2023-05-20T01:12:57;100325.75;;;11.29;0.00
23318;BME280;11831;55.918;37.746;2023-05-20T01:15:26;100314.25;;;11.15;0.00
23318;BME280;11831;55.918;37.746;2023-05-20T01:17:59;100327.03;;;11.13;0.00
23318;BME280;11831;55.918;37.746;2023-05-20T01:20:27;100329.72;;;11.00;0.00
23318;BME280;11831;55.918;37.746;2023-05-20T01:22:58;100323.69;;;11.31;0.00
23318;BME280;11831;55.918;37.746;2023-05-20T01:25:24;100330.31;;;11.15;0.00
23318;BME280;11831;55.918;37.746;2023-05-20T01:27:52;100323.50;;;11.33;0.00
23318;BME280;11831;55.918;37.746;2023-05-20T01:30:19;100326.22;;;11.13;0.00
23318;BME280;11831;55.918;37.746;2023-05-20T01:32:49;100333.44;;;11.06;0.00
23318;BME280;11831;55.918;37.746;2023-05-20T01:35:17;100330.75;;;11.12;0.00
23318;BME280;11831;55.918;37.746;2023-05-20T01:37:46;100329.53;;;11.08;0.00
23318;BME280;11831;55.918;37.746;2023-05-20T01:40:14;100337.50;;;11.22;0.00
23318;BME280;11831;55.918;37.746;2023-05-20T01:42:42;100331.87;;;11.43;0.00
23318;BME280;11831;55.918;37.746;2023-05-20T01:45:10;100331.31;;;11.34;0.00
23318;BME280;11831;55.918;37.746;2023-05-20T01:47:37;100340.31;;;11.46;0.00
23318;BME280;11831;55.918;37.746;2023-05-20T01:50:04;100335.84;;;11.27;0.00
23318;BME280;11831;55.918;37.746;2023-05-20T01:52:30;100329.84;;;11.32;0.00
23318;BME280;11831;55.918;37.746;2023-05-20T01:54:57;100335.25;;;11.18;0.00
23318;BME280;11831;55.918;37.746;2023-05-20T01:57:23;100333.56;;;11.37;0.00
23318;BME280;11831;55.918;37.746;2023-05-20T01:59:50;100332.19;;;11.08;0.00
23318;BME280;11831;55.918;37.746;2023-05-20T02:02:16;100329.25;;;11.36;0.00
23318;BME280;11831;55.918;37.746;2023-05-20T02:04:44;100336.44;;;11.42;0.00
23318;BME280;11831;55.918;37.746;2023-05-20T02:07:15;100337.72;;;11.20;0.00
23318;BME280;11831;55.918;37.746;2023-05-20T02:09:43;100331.06;;;11.42;0.00
23318;BME280;11831;55.918;37.746;2023-05-20T02:12:10;100335.41;;;11.37;0.00
23318;BME280;11831;55.918;37.746;2023-05-20T02:14:42;100334.00;;;11.21;0.00
23318;BME280;11831;55.918;37.746;2023-05-20T02:17:08;100343.69;;;11.22;0.00
23318;BME280;11831;55.918;37.746;2023-05-20T02:19:34;100339.41;;;11.08;0.00
23318;BME280;11831;55.918;37.746;2023-05-20T02:22:01;100347.00;;;11.11;0.00
23318;BME280;11831;55.918;37.746;2023-05-20T02:24:27;100341.44;;;11.19;0.00
23318;BME280;11831;55.918;37.746;2023-05-20T02:26:53;100349.47;;;11.19;0.00
23318;BME280;11831;55.918;37.746;2023-05-20T02:29:22;100340.19;;;11.22;0.00
23318;BME280;11831;55.918;37.746;2023-05-20T02:31:49;100343.28;;;11.18;0.00
23318;BME280;11831;55.918;37.746;2023-05-20T02:34:19;100335.47;;;11.17;0.00
23318;BME280;11831;55.918;37.746;2023-05-20T02:36:46;100337.72;;;11.20;0.00
23318;BME280;11831;55.918;37.746;2023-05-20T02:39:13;100329.94;;;11.05;0.00
23318;BME280;11831;55.918;37.746;2023-05-20T02:41:39;100344.34;;;11.11;0.00
23318;BME280;11831;55.918;37.746;2023-05-20T02:44:05;100353.81;;;11.13;0.00
23318;BME280;11831;55.918;37.746;2023-05-20T02:46:31;100338.13;;;11.24;0.00
23318;BME280;11831;55.918;37.746;2023-05-20T02:48:58;100342.09;;;10.95;0.00
23318;BME280;11831;55.918;37.746;2023-05-20T02:51:24;100338.31;;;11.29;0.00
23318;BME280;11831;55.918;37.746;2023-05-20T02:53:50;100346.75;;;11.26;0.00
23318;BME280;11831;55.918;37.746;2023-05-20T02:56:17;100341.03;;;11.15;0.00
23318;BME280;11831;55.918;37.746;2023-05-20T02:58:47;100348.19;;;11.28;0.00
23318;BME280;11831;55.918;37.746;2023-05-20T03:01:13;100349.50;;;10.93;0.00
23318;BME280;11831;55.918;37.746;2023-05-20T03:03:40;100349.72;;;10.91;0.00
23318;BME280;11831;55.918;37.746;2023-05-20T03:06:06;100345.75;;;11.20;0.00
23318;BME280;11831;55.918;37.746;2023-05-20T03:08:34;100344.53;;;11.16;0.00
23318;BME280;11831;55.918;37.746;2023-05-20T03:11:01;100350.88;;;11.28;0.00
23318;BME280;11831;55.918;37.746;2023-05-20T03:13:27;100350.88;;;11.35;0.00
23318;BME280;11831;55.918;37.746;2023-05-20T03:15:54;100350.75;;;11.03;0.00
23318;BME280;11831;55.918;37.746;2023-05-20T03:18:20;100352.09;;;11.32;0.00
23318;BME280;11831;55.918;37.746;2023-05-20T03:20:47;100358.19;;;10.81;0.00
23318;BME280;11831;55.918;37.746;2023-05-20T03:23:13;100349.25;;;11.20;0.00
23318;BME280;11831;55.918;37.746;2023-05-20T03:25:39;100348.00;;;11.23;0.00
23318;BME280;11831;55.918;37.746;2023-05-20T03:28:06;100355.41;;;11.28;0.00
23318;BME280;11831;55.918;37.746;2023-05-20T03:30:32;100355.25;;;11.16;0.00
23318;BME280;11831;55.918;37.746;2023-05-20T03:32:59;100346.19;;;11.17;0.00
23318;BME280;11831;55.918;37.746;2023-05-20T03:35:27;100363.28;;;11.09;0.00
23318;BME280;11831;55.918;37.746;2023-05-20T03:37:54;100352.97;;;11.13;0.00
23318;BME280;11831;55.918;37.746;2023-05-20T03:40:21;100362.44;;;11.22;0.00
23318;BME280;11831;55.918;37.746;2023-05-20T03:42:47;100348.41;;;11.33;0.00
23318;BME280;11831;55.918;37.746;2023-05-20T03:45:16;100352.06;;;11.45;0.00
23318;BME280;11831;55.918;37.746;2023-05-20T03:47:43;100353.38;;;11.23;0.00
23318;BME280;11831;55.918;37.746;2023-05-20T03:50:09;100362.44;;;11.15;0.00
23318;BME280;11831;55.918;37.746;2023-05-20T03:52:36;100353.75;;;11.27;0.00
23318;BME280;11831;55.918;37.746;2023-05-20T03:55:03;100361.50;;;11.55;0.00
23318;BME280;11831;55.918;37.746;2023-05-20T03:57:29;100361.59;;;11.35;0.00
23318;BME280;11831;55.918;37.746;2023-05-20T03:59:57;100361.31;;;11.49;0.00
23318;BME280;11831;55.918;37.746;2023-05-20T04:02:23;100358.87;;;11.41;0.00
23318;BME280;11831;55.918;37.746;2023-05-20T04:04:49;100357.59;;;11.50;0.00
23318;BME280;11831;55.918;37.746;2023-05-20T04:07:22;100363.00;;;11.44;0.00
23318;BME280;11831;55.918;37.746;2023-05-20T04:09:49;100379.00;;;11.64;0.00
23318;BME280;11831;55.918;37.746;2023-05-20T04:12:15;100369.31;;;11.56;0.00
23318;BME280;11831;55.918;37.746;2023-05-20T04:14:44;100359.06;;;11.46;0.00
23318;BME280;11831;55.918;37.746;2023-05-20T04:17:10;100360.66;;;11.67;0.00
23318;BME280;11831;55.918;37.746;2023-05-20T04:19:37;100363.72;;;11.71;0.00
23318;BME280;11831;55.918;37.746;2023-05-20T04:22:03;100361.31;;;11.49;0.00
23318;BME280;11831;55.918;37.746;2023-05-20T04:24:30;100367.25;;;11.65;0.00
23318;BME280;11831;55.918;37.746;2023-05-20T04:26:56;100361.94;;;11.51;0.00
23318;BME280;11831;55.918;37.746;2023-05-20T04:29:22;100368.91;;;11.66;0.00
23318;BME280;11831;55.918;37.746;2023-05-20T04:31:49;100364.66;;;11.96;0.00
23318;BME280;11831;55.918;37.746;2023-05-20T04:34:15;100354.16;;;11.95;0.00
23318;BME280;11831;55.918;37.746;2023-05-20T04:36:45;100343.72;;;11.73;0.00
23318;BME280;11831;55.918;37.746;2023-05-20T04:39:11;100340.44;;;11.71;0.00
23318;BME280;11831;55.918;37.746;2023-05-20T04:41:39;100346.16;;;11.81;0.00
23318;BME280;11831;55.918;37.746;2023-05-20T04:44:06;100351.03;;;11.98;0.00
23318;BME280;11831;55.918;37.746;2023-05-20T04:46:32;100351.94;;;12.48;0.00
23318;BME280;11831;55.918;37.746;2023-05-20T04:48:58;100339.53;;;12.22;0.00
23318;BME280;11831;55.918;37.746;2023-05-20T04:51:25;100348.59;;;11.96;0.00
23318;BME280;11831;55.918;37.746;2023-05-20T04:53:51;100331.31;;;11.86;0.00
23318;BME280;11831;55.918;37.746;2023-05-20T04:56:17;100347.78;;;11.89;0.00
23318;BME280;11831;55.918;37.746;2023-05-20T04:58:44;100357.56;;;12.08;0.00
23318;BME280;11831;55.918;37.746;2023-05-20T05:01:10;100361.56;;;12.31;0.00
23318;BME280;11831;55.918;37.746;2023-05-20T05:03:37;100358.50;;;12.77;0.00
23318;BME280;11831;55.918;37.746;2023-05-20T05:06:03;100364.53;;;12.72;0.00
23318;BME280;11831;55.918;37.746;2023-05-20T05:08:30;100363.69;;;12.47;0.00
23318;BME280;11831;55.918;37.746;2023-05-20T05:10:56;100350.44;;;12.52;0.00
23318;BME280;11831;55.918;37.746;2023-05-20T05:13:22;100357.41;;;12.35;0.00
23318;BME280;11831;55.918;37.746;2023-05-20T05:15:57;100349.63;;;12.27;0.00
23318;BME280;11831;55.918;37.746;2023-05-20T05:18:25;100352.22;;;12.65;0.00
23318;BME280;11831;55.918;37.746;2023-05-20T05:21:01;100361.34;;;12.82;0.00
23318;BME280;11831;55.918;37.746;2023-05-20T05:23:28;100357.84;;;12.82;0.00
23318;BME280;11831;55.918;37.746;2023-05-20T05:25:54;100353.69;;;12.61;0.00
23318;BME280;11831;55.918;37.746;2023-05-20T05:28:21;100345.97;;;12.46;0.00
23318;BME280;11831;55.918;37.746;2023-05-20T05:30:47;100338.06;;;12.51;0.00
23318;BME280;11831;55.918;37.746;2023-05-20T05:33:14;100349.47;;;12.71;0.00
23318;BME280;11831;55.918;37.746;2023-05-20T05:35:41;100357.16;;;12.68;0.00
23318;BME280;11831;55.918;37.746;2023-05-20T05:38:08;100351.41;;;13.07;0.00
23318;BME280;11831;55.918;37.746;2023-05-20T05:40:34;100347.25;;;13.66;0.00
23318;BME280;11831;55.918;37.746;2023-05-20T05:43:01;100334.09;;;13.77;0.00
23318;BME280;11831;55.918;37.746;2023-05-20T05:45:27;100317.19;;;15.87;0.00
23318;BME280;11831;55.918;37.746;2023-05-20T05:47:54;100311.69;;;18.30;0.00
23318;BME280;11831;55.918;37.746;2023-05-20T05:50:20;100320.34;;;18.00;0.00
23318;BME280;11831;55.918;37.746;2023-05-20T05:52:47;100332.13;;;17.23;0.00
23318;BME280;11831;55.918;37.746;2023-05-20T05:55:13;100329.81;;;18.29;0.00
23318;BME280;11831;55.918;37.746;2023-05-20T05:57:40;100315.37;;;18.19;0.00
23318;BME280;11831;55.918;37.746;2023-05-20T06:00:07;100323.31;;;17.98;0.00
23318;BME280;11831;55.918;37.746;2023-05-20T06:02:44;100328.56;;;18.10;0.00
23318;BME280;11831;55.918;37.746;2023-05-20T06:05:11;100321.25;;;18.38;0.00
23318;BME280;11831;55.918;37.746;2023-05-20T06:07:38;100336.41;;;17.63;0.00
23318;BME280;11831;55.918;37.746;2023-05-20T06:10:04;100330.34;;;18.96;0.00
23318;BME280;11831;55.918;37.746;2023-05-20T06:12:31;100313.12;;;19.74;0.00
23318;BME280;11831;55.918;37.746;2023-05-20T06:14:57;100328.78;;;19.57;0.00
23318;BME280;11831;55.918;37.746;2023-05-20T06:17:23;100318.16;;;19.50;0.00
23318;BME280;11831;55.918;37.746;2023-05-20T06:19:50;100331.34;;;19.27;0.00
23318;BME280;11831;55.918;37.746;2023-05-20T06:22:16;100325.37;;;19.24;0.00
23318;BME280;11831;55.918;37.746;2023-05-20T06:24:42;100335.06;;;18.68;0.00
23318;BME280;11831;55.918;37.746;2023-05-20T06:27:09;100335.22;;;19.41;0.00
23318;BME280;11831;55.918;37.746;2023-05-20T06:29:35;100338.81;;;19.04;0.00
23318;BME280;11831;55.918;37.746;2023-05-20T06:32:01;100321.59;;;18.78;0.00
23318;BME280;11831;55.918;37.746;2023-05-20T06:34:28;100319.78;;;19.51;0.00
23318;BME280;11831;55.918;37.746;2023-05-20T06:36:54;100327.44;;;19.54;0.00
23318;BME280;11831;55.918;37.746;2023-05-20T06:39:21;100338.63;;;18.74;0.00
23318;BME280;11831;55.918;37.746;2023-05-20T06:41:47;100334.97;;;19.47;0.00
23318;BME280;11831;55.918;37.746;2023-05-20T06:44:17;100341.03;;;19.12;0.00
23318;BME280;11831;55.918;37.746;2023-05-20T06:46:44;100337.91;;;19.31;0.00
23318;BME280;11831;55.918;37.746;2023-05-20T06:49:11;100330.66;;;19.51;0.00
23318;BME280;11831;55.918;37.746;2023-05-20T06:51:37;100322.37;;;19.78;0.00
23318;BME280;11831;55.918;37.746;2023-05-20T06:54:04;100332.41;;;18.78;0.00
23318;BME280;11831;55.918;37.746;2023-05-20T06:56:30;100322.97;;;18.49;0.00
23318;BME280;11831;55.918;37.746;2023-05-20T06:58:57;100330.62;;;17.32;0.00
23318;BME280;11831;55.918;37.746;2023-05-20T07:01:24;100338.44;;;17.12;0.00
23318;BME280;11831;55.918;37.746;2023-05-20T07:03:50;100330.06;;;17.52;0.00
23318;BME280;11831;55.918;37.746;2023-05-20T07:06:17;100321.56;;;18.41;0.00
23318;BME280;11831;55.918;37.746;2023-05-20T07:08:43;100300.47;;;20.31;0.00
23318;BME280;11831;55.918;37.746;2023-05-20T07:11:10;100322.34;;;19.73;0.00
23318;BME280;11831;55.918;37.746;2023-05-20T07:13:36;100295.53;;;17.81;0.00
23318;BME280;11831;55.918;37.746;2023-05-20T07:16:03;100316.25;;;17.97;0.00
23318;BME280;11831;55.918;37.746;2023-05-20T07:18:30;100317.56;;;20.36;0.00
23318;BME280;11831;55.918;37.746;2023-05-20T07:20:56;100295.53;;;19.19;0.00
23318;BME280;11831;55.918;37.746;2023-05-20T07:23:23;100324.28;;;19.26;0.00
23318;BME280;11831;55.918;37.746;2023-05-20T07:25:52;100326.25;;;18.88;0.00
23318;BME280;11831;55.918;37.746;2023-05-20T07:28:19;100326.69;;;18.70;0.00
23318;BME280;11831;55.918;37.746;2023-05-20T07:30:47;100313.44;;;17.65;0.00
23318;BME280;11831;55.918;37.746;2023-05-20T07:33:16;100304.09;;;17.29;0.00
23318;BME280;11831;55.918;37.746;2023-05-20T07:35:43;100316.00;;;17.12;0.00
23318;BME280;11831;55.918;37.746;2023-05-20T07:38:10;100315.94;;;16.85;0.00
23318;BME280;11831;55.918;37.746;2023-05-20T07:40:39;100316.41;;;16.82;0.00
23318;BME280;11831;55.918;37.746;2023-05-20T07:43:07;100336.78;;;17.28;0.00
23318;BME280;11831;55.918;37.746;2023-05-20T07:45:34;100323.03;;;17.51;0.00
23318;BME280;11831;55.918;37.746;2023-05-20T07:48:03;100323.47;;;17.21;0.00
23318;BME280;11831;55.918;37.746;2023-05-20T07:50:29;100309.94;;;16.83;0.00
23318;BME280;11831;55.918;37.746;2023-05-20T07:52:55;100321.25;;;17.18;0.00
23318;BME280;11831;55.918;37.746;2023-05-20T07:55:22;100309.91;;;16.99;0.00
23318;BME280;11831;55.918;37.746;2023-05-20T07:57:48;100328.00;;;17.81;0.00
23318;BME280;11831;55.918;37.746;2023-05-20T08:00:15;100325.47;;;18.28;0.00
23318;BME280;11831;55.918;37.746;2023-05-20T08:02:43;100321.34;;;18.53;0.00
23318;BME280;11831;55.918;37.746;2023-05-20T08:05:10;100311.56;;;19.94;0.00
23318;BME280;11831;55.918;37.746;2023-05-20T08:07:36;100312.41;;;20.70;0.00
23318;BME280;11831;55.918;37.746;2023-05-20T08:10:03;100314.47;;;19.67;0.00
23318;BME280;11831;55.918;37.746;2023-05-20T08:12:30;100307.50;;;20.06;0.00
23318;BME280;11831;55.918;37.746;2023-05-20T08:14:57;100322.97;;;20.16;0.00
23318;BME280;11831;55.918;37.746;2023-05-20T08:17:23;100314.81;;;20.01;0.00
23318;BME280;11831;55.918;37.746;2023-05-20T08:19:50;100313.09;;;19.07;0.00
23318;BME280;11831;55.918;37.746;2023-05-20T08:22:16;100311.09;;;20.58;0.00
23318;BME280;11831;55.918;37.746;2023-05-20T08:24:42;100315.09;;;20.20;0.00
23318;BME280;11831;55.918;37.746;2023-05-20T08:27:09;100318.84;;;21.10;0.00
23318;BME280;11831;55.918;37.746;2023-05-20T08:29:35;100316.25;;;20.64;0.00
23318;BME280;11831;55.918;37.746;2023-05-20T08:32:02;100314.31;;;20.39;0.00
23318;BME280;11831;55.918;37.746;2023-05-20T08:34:28;100307.47;;;21.13;0.00
23318;BME280;11831;55.918;37.746;2023-05-20T08:36:55;100282.22;;;20.92;0.00
23318;BME280;11831;55.918;37.746;2023-05-20T08:39:23;100303.47;;;20.65;0.00
23318;BME280;11831;55.918;37.746;2023-05-20T08:41:50;100321.53;;;19.78;0.00
23318;BME280;11831;55.918;37.746;2023-05-20T08:44:18;100313.50;;;20.74;0.00
23318;BME280;11831;55.918;37.746;2023-05-20T08:46:46;100308.59;;;20.05;0.00
23318;BME280;11831;55.918;37.746;2023-05-20T08:49:13;100304.78;;;20.77;0.00
23318;BME280;11831;55.918;37.746;2023-05-20T08:51:39;100315.84;;;21.22;0.00
23318;BME280;11831;55.918;37.746;2023-05-20T08:54:08;100316.78;;;20.82;0.00
23318;BME280;11831;55.918;37.746;2023-05-20T08:56:35;100324.41;;;20.59;0.00
23318;BME280;11831;55.918;37.746;2023-05-20T08:59:02;100302.13;;;20.42;0.00
23318;BME280;11831;55.918;37.746;2023-05-20T09:01:29;100312.94;;;20.32;0.00
23318;BME280;11831;55.918;37.746;2023-05-20T09:03:55;100302.41;;;20.56;0.00
23318;BME280;11831;55.918;37.746;2023-05-20T09:06:22;100310.00;;;20.54;0.00
23318;BME280;11831;55.918;37.746;2023-05-20T09:08:49;100306.19;;;20.60;0.00
23318;BME280;11831;55.918;37.746;2023-05-20T09:11:17;100293.97;;;20.52;0.00
23318;BME280;11831;55.918;37.746;2023-05-20T09:13:44;100305.31;;;21.00;0.00
23318;BME280;11831;55.918;37.746;2023-05-20T09:16:10;100303.72;;;20.23;0.00
23318;BME280;11831;55.918;37.746;2023-05-20T09:18:39;100310.78;;;20.74;0.00
23318;BME280;11831;55.918;37.746;2023-05-20T09:21:06;100307.25;;;21.64;0.00
23318;BME280;11831;55.918;37.746;2023-05-20T09:23:36;100303.72;;;20.23;0.00
23318;BME280;11831;55.918;37.746;2023-05-20T09:26:03;100319.75;;;20.24;0.00
23318;BME280;11831;55.918;37.746;2023-05-20T09:28:30;100318.91;;;19.98;0.00
23318;BME280;11831;55.918;37.746;2023-05-20T09:30:57;100310.25;;;20.42;0.00
23318;BME280;11831;55.918;37.746;2023-05-20T09:33:29;100315.69;;;20.62;0.00
23318;BME280;11831;55.918;37.746;2023-05-20T09:36:03;100330.47;;;21.41;0.00
23318;BME280;11831;55.918;37.746;2023-05-20T09:38:32;100334.16;;;20.50;0.00
23318;BME280;11831;55.918;37.746;2023-05-20T09:41:05;100336.31;;;20.28;0.00
23318;BME280;11831;55.918;37.746;2023-05-20T09:43:35;100330.28;;;19.95;0.00
23318;BME280;11831;55.918;37.746;2023-05-20T09:46:03;100333.62;;;20.48;0.00
23318;BME280;11831;55.918;37.746;2023-05-20T09:48:30;100338.75;;;20.34;0.00
23318;BME280;11831;55.918;37.746;2023-05-20T09:50:58;100337.88;;;19.93;0.00
23318;BME280;11831;55.918;37.746;2023-05-20T09:53:27;100337.34;;;20.01;0.00
23318;BME280;11831;55.918;37.746;2023-05-20T09:55:54;100342.28;;;19.47;0.00
23318;BME280;11831;55.918;37.746;2023-05-20T09:58:21;100340.78;;;19.71;0.00
23318;BME280;11831;55.918;37.746;2023-05-20T10:00:48;100345.25;;;19.40;0.00
23318;BME280;11831;55.918;37.746;2023-05-20T10:03:15;100340.97;;;18.65;0.00
23318;BME280;11831;55.918;37.746;2023-05-20T10:05:51;100313.69;;;19.76;0.00
23318;BME280;11831;55.918;37.746;2023-05-20T10:16:37;100340.16;;;20.57;0.00
23318;BME280;11831;55.918;37.746;2023-05-20T10:19:27;100337.66;;;21.01;0.00
23318;BME280;11831;55.918;37.746;2023-05-20T10:22:01;100332.00;;;20.47;0.00
23318;BME280;11831;55.918;37.746;2023-05-20T10:24:39;100342.75;;;19.91;0.00
23318;BME280;11831;55.918;37.746;2023-05-20T10:27:09;100327.22;;;19.61;0.00
23318;BME280;11831;55.918;37.746;2023-05-20T10:29:43;100342.84;;;20.83;0.00
23318;BME280;11831;55.918;37.746;2023-05-20T10:32:10;100333.91;;;20.82;0.00
23318;BME280;11831;55.918;37.746;2023-05-20T10:34:47;100329.78;;;18.93;0.00
23318;BME280;11831;55.918;37.746;2023-05-20T10:37:25;100345.75;;;18.26;0.00
23318;BME280;11831;55.918;37.746;2023-05-20T10:40:11;100347.06;;;18.50;0.00
23318;BME280;11831;55.918;37.746;2023-05-20T10:42:38;100340.00;;;18.17;0.00
23318;BME280;11831;55.918;37.746;2023-05-20T10:45:06;100341.66;;;19.87;0.00
23318;BME280;11831;55.918;37.746;2023-05-20T10:47:34;100332.91;;;18.70;0.00
23318;BME280;11831;55.918;37.746;2023-05-20T10:50:00;100343.91;;;18.31;0.00
23318;BME280;11831;55.918;37.746;2023-05-20T10:52:36;100342.94;;;18.70;0.00
23318;BME280;11831;55.918;37.746;2023-05-20T10:55:03;100346.53;;;19.28;0.00
23318;BME280;11831;55.918;37.746;2023-05-20T10:57:30;100341.97;;;20.11;0.00
23318;BME280;11831;55.918;37.746;2023-05-20T10:59:59;100336.50;;;19.28;0.00
23318;BME280;11831;55.918;37.746;2023-05-20T11:02:26;100333.56;;;20.99;0.00
23318;BME280;11831;55.918;37.746;2023-05-20T11:04:56;100336.28;;;18.87;0.00
23318;BME280;11831;55.918;37.746;2023-05-20T11:07:27;100330.84;;;18.87;0.00
23318;BME280;11831;55.918;37.746;2023-05-20T11:09:57;100341.87;;;19.65;0.00
23318;BME280;11831;55.918;37.746;2023-05-20T11:12:24;100334.38;;;19.35;0.00
23318;BME280;11831;55.918;37.746;2023-05-20T11:14:52;100334.47;;;18.66;0.00
23318;BME280;11831;55.918;37.746;2023-05-20T11:17:19;100350.84;;;18.76;0.00
23318;BME280;11831;55.918;37.746;2023-05-20T11:19:46;100337.34;;;20.06;0.00
23318;BME280;11831;55.918;37.746;2023-05-20T11:22:12;100345.59;;;19.02;0.00
23318;BME280;11831;55.918;37.746;2023-05-20T11:24:41;100344.09;;;19.26;0.00
23318;BME280;11831;55.918;37.746;2023-05-20T11:27:08;100353.22;;;18.68;0.00
23318;BME280;11831;55.918;37.746;2023-05-20T11:29:34;100339.97;;;18.71;0.00
23318;BME280;11831;55.918;37.746;2023-05-20T11:32:01;100337.59;;;18.53;0.00
23318;BME280;11831;55.918;37.746;2023-05-20T11:34:35;100315.03;;;18.69;0.00
23318;BME280;11831;55.918;37.746;2023-05-20T11:37:06;100341.75;;;18.34;0.00
23318;BME280;11831;55.918;37.746;2023-05-20T11:39:33;100347.12;;;18.60;0.00
23318;BME280;11831;55.918;37.746;2023-05-20T11:42:00;100324.06;;;18.53;0.00
23318;BME280;11831;55.918;37.746;2023-05-20T11:44:26;100348.78;;;18.61;0.00
23318;BME280;11831;55.918;37.746;2023-05-20T11:47:01;100344.59;;;18.17;0.00
23318;BME280;11831;55.918;37.746;2023-05-20T11:49:28;100342.16;;;18.74;0.00
23318;BME280;11831;55.918;37.746;2023-05-20T11:51:55;100335.97;;;18.84;0.00
23318;BME280;11831;55.918;37.746;2023-05-20T11:54:23;100343.41;;;18.67;0.00
23318;BME280;11831;55.918;37.746;2023-05-20T11:56:49;100344.75;;;18.64;0.00
23318;BME280;11831;55.918;37.746;2023-05-20T11:59:16;100346.03;;;18.88;0.00
23318;BME280;11831;55.918;37.746;2023-05-20T12:01:42;100349.84;;;18.60;0.00
23318;BME280;11831;55.918;37.746;2023-05-20T12:04:10;100342.47;;;18.83;0.00
23318;BME280;11831;55.918;37.746;2023-05-20T12:06:38;100342.13;;;18.69;0.00
23318;BME280;11831;55.918;37.746;2023-05-20T12:09:06;100342.06;;;18.64;0.00
23318;BME280;11831;55.918;37.746;2023-05-20T12:11:34;100350.31;;;17.93;0.00
23318;BME280;11831;55.918;37.746;2023-05-20T12:14:02;100344.34;;;18.18;0.00
23318;BME280;11831;55.918;37.746;2023-05-20T12:16:30;100343.34;;;18.29;0.00
23318;BME280;11831;55.918;37.746;2023-05-20T12:18:57;100336.88;;;19.52;0.00
23318;BME280;11831;55.918;37.746;2023-05-20T12:21:23;100349.47;;;19.16;0.00
23318;BME280;11831;55.918;37.746;2023-05-20T12:23:50;100344.97;;;20.09;0.00
23318;BME280;11831;55.918;37.746;2023-05-20T12:26:28;100339.06;;;20.68;0.00
23318;BME280;11831;55.918;37.746;2023-05-20T12:28:55;100344.97;;;20.14;0.00
23318;BME280;11831;55.918;37.746;2023-05-20T12:31:21;100338.97;;;20.07;0.00
23318;BME280;11831;55.918;37.746;2023-05-20T12:33:48;100340.97;;;20.63;0.00
23318;BME280;11831;55.918;37.746;2023-05-20T12:36:14;100342.47;;;19.88;0.00
23318;BME280;11831;55.918;37.746;2023-05-20T12:38:41;100334.44;;;20.69;0.00
23318;BME280;11831;55.918;37.746;2023-05-20T12:41:07;100348.22;;;20.11;0.00
23318;BME280;11831;55.918;37.746;2023-05-20T12:43:34;100341.75;;;20.48;0.00
23318;BME280;11831;55.918;37.746;2023-05-20T12:46:02;100338.75;;;20.80;0.00
23318;BME280;11831;55.918;37.746;2023-05-20T12:48:28;100340.09;;;20.32;0.00
23318;BME280;11831;55.918;37.746;2023-05-20T12:50:55;100342.84;;;20.47;0.00
23318;BME280;11831;55.918;37.746;2023-05-20T12:53:21;100332.19;;;20.20;0.00
23318;BME280;11831;55.918;37.746;2023-05-20T12:55:47;100334.69;;;20.37;0.00
23318;BME280;11831;55.918;37.746;2023-05-20T12:58:14;100331.41;;;20.30;0.00
23318;BME280;11831;55.918;37.746;2023-05-20T13:00:40;100339.34;;;18.64;0.00